RYR9ZE LGSA-EPKK
Flight info
| Callsign | RYR9ZE |
|---|---|
| Flight time | N/A |
| Altitude | 36000 |
| Route | SOKRI UY151 VELOP DCT ATV UM749 SKP UL617 BAMOS/N0436F350 DCT PEREN/N0439F360 DCT ATFIR N133 USALI DCT ERDOM DCT NARKA DCT KSC DCT KOJOT DCT RAZEC/N0359F240 N133 LENOV |
| Aircraft | B738/M-SDE2E3FGHIRWXY/LB1 |
Departure
| Time | N/A |
|---|---|
| Airport | Chania International Airport (LGSA) |
Arrival
| Time | 2026-04-30 19:51 |
|---|---|
| Airport | Kraków John Paul II International Airport (EPKK) |
| Time | Latitude | Longitude | Altitude | Speed | Heading |
|---|---|---|---|---|---|
| 2026-04-30 17:39 | 35.99564 | 23.85914 | 17311 ft | 382 kts | 356° |
| 2026-04-30 17:41 | 36.21476 | 23.85286 | 21575 ft | 405 kts | 355° |
| 2026-04-30 17:42 | 36.27110 | 23.85125 | 22524 ft | 411 kts | 355° |
| 2026-04-30 17:42 | 36.35757 | 23.84877 | 23856 ft | 418 kts | 355° |
| 2026-04-30 17:43 | 36.41606 | 23.84710 | 24626 ft | 422 kts | 355° |
| 2026-04-30 17:44 | 36.50486 | 23.84455 | 25733 ft | 429 kts | 355° |
| 2026-04-30 17:44 | 36.59462 | 23.84196 | 26766 ft | 435 kts | 355° |
| 2026-04-30 17:46 | 36.74752 | 23.83754 | 28353 ft | 445 kts | 355° |
| 2026-04-30 17:47 | 36.87198 | 23.83394 | 29484 ft | 453 kts | 355° |
| 2026-04-30 17:48 | 36.99753 | 23.83031 | 30915 ft | 448 kts | 355° |
| 2026-04-30 17:48 | 37.09054 | 23.82760 | 31843 ft | 446 kts | 355° |
| 2026-04-30 17:49 | 37.21426 | 23.82397 | 33072 ft | 443 kts | 354° |
| 2026-04-30 17:50 | 37.33717 | 23.82037 | 34205 ft | 440 kts | 354° |
| 2026-04-30 17:51 | 37.42862 | 23.81767 | 34865 ft | 440 kts | 354° |
| 2026-04-30 17:52 | 37.52021 | 23.81496 | 35518 ft | 439 kts | 354° |
| 2026-04-30 17:53 | 37.67243 | 23.81044 | 35985 ft | 439 kts | 354° |
| 2026-04-30 17:54 | 37.79346 | 23.80686 | 35992 ft | 432 kts | 354° |
| 2026-04-30 17:56 | 38.03102 | 23.78393 | 36000 ft | 431 kts | 348° |
| 2026-04-30 17:58 | 38.21069 | 23.75815 | 36016 ft | 436 kts | 348° |
| 2026-04-30 18:00 | 38.45171 | 23.72312 | 36027 ft | 435 kts | 348° |
| 2026-04-30 18:01 | 38.60171 | 23.70121 | 36025 ft | 433 kts | 348° |
| 2026-04-30 18:02 | 38.78030 | 23.67500 | 36035 ft | 431 kts | 348° |
| 2026-04-30 18:04 | 38.95891 | 23.64866 | 36039 ft | 432 kts | 348° |
| 2026-04-30 18:06 | 39.19789 | 23.60933 | 36007 ft | 429 kts | 336° |
| 2026-04-30 18:07 | 39.31225 | 23.56887 | 36037 ft | 442 kts | 358° |
| 2026-04-30 18:08 | 39.40337 | 23.59354 | 36049 ft | 451 kts | 8° |
| 2026-04-30 18:10 | 39.64727 | 23.66951 | 36064 ft | 452 kts | 8° |
| 2026-04-30 18:11 | 39.86105 | 23.73595 | 36069 ft | 451 kts | 7° |
| 2026-04-30 18:13 | 40.01318 | 23.78349 | 36066 ft | 451 kts | 7° |
| 2026-04-30 18:14 | 40.16529 | 23.83125 | 36073 ft | 452 kts | 7° |
| 2026-04-30 18:15 | 40.34860 | 23.88909 | 36083 ft | 452 kts | 6° |
| 2026-04-30 18:16 | 40.47057 | 23.92775 | 36093 ft | 453 kts | 6° |
| 2026-04-30 18:17 | 40.53178 | 23.94721 | 36097 ft | 453 kts | 6° |
| 2026-04-30 18:17 | 40.59320 | 23.96304 | 36090 ft | 443 kts | 355° |
| 2026-04-30 18:18 | 40.62365 | 23.96255 | 36103 ft | 433 kts | 346° |
| 2026-04-30 18:18 | 40.68188 | 23.94863 | 36105 ft | 428 kts | 341° |
| 2026-04-30 18:19 | 40.74041 | 23.93408 | 36101 ft | 429 kts | 342° |
| 2026-04-30 18:19 | 40.79912 | 23.91997 | 36109 ft | 429 kts | 342° |
| 2026-04-30 18:20 | 40.85791 | 23.90596 | 36113 ft | 430 kts | 342° |
| 2026-04-30 18:20 | 40.91643 | 23.89201 | 36120 ft | 430 kts | 342° |
| 2026-04-30 18:21 | 40.97533 | 23.87792 | 36119 ft | 430 kts | 342° |
| 2026-04-30 18:21 | 41.03424 | 23.86379 | 36122 ft | 430 kts | 342° |
| 2026-04-30 18:22 | 41.09307 | 23.84966 | 36128 ft | 430 kts | 342° |
| 2026-04-30 18:22 | 41.18097 | 23.82850 | 36137 ft | 429 kts | 341° |
| 2026-04-30 18:23 | 41.23972 | 23.81432 | 36142 ft | 429 kts | 341° |
| 2026-04-30 18:23 | 41.29845 | 23.80011 | 36148 ft | 430 kts | 341° |
| 2026-04-30 18:24 | 41.38646 | 23.77878 | 36154 ft | 431 kts | 341° |
| 2026-04-30 18:25 | 41.44608 | 23.76725 | 36172 ft | 437 kts | 346° |
| 2026-04-30 18:25 | 41.53719 | 23.75535 | 36173 ft | 439 kts | 346° |
| 2026-04-30 18:26 | 41.62800 | 23.74297 | 36193 ft | 440 kts | 346° |
| 2026-04-30 18:27 | 41.71936 | 23.72995 | 36202 ft | 441 kts | 346° |
| 2026-04-30 18:28 | 41.81108 | 23.71683 | 36214 ft | 442 kts | 346° |
| 2026-04-30 18:28 | 41.90235 | 23.70376 | 36226 ft | 441 kts | 346° |
| 2026-04-30 18:29 | 42.02433 | 23.68622 | 36255 ft | 440 kts | 346° |
| 2026-04-30 18:30 | 42.14533 | 23.66874 | 36231 ft | 438 kts | 346° |
| 2026-04-30 18:31 | 42.23615 | 23.65557 | 36261 ft | 438 kts | 346° |
| 2026-04-30 18:32 | 42.32675 | 23.64082 | 36257 ft | 434 kts | 342° |
| 2026-04-30 18:33 | 42.41458 | 23.61484 | 36262 ft | 433 kts | 340° |
| 2026-04-30 18:33 | 42.50300 | 23.58807 | 36275 ft | 435 kts | 340° |
| 2026-04-30 18:34 | 42.59203 | 23.56212 | 36273 ft | 437 kts | 341° |
| 2026-04-30 18:35 | 42.65165 | 23.54481 | 36283 ft | 438 kts | 341° |
| 2026-04-30 18:35 | 42.71093 | 23.52756 | 36266 ft | 439 kts | 341° |
| 2026-04-30 18:36 | 42.80065 | 23.50137 | 36275 ft | 440 kts | 341° |
| 2026-04-30 18:37 | 42.89038 | 23.47508 | 36272 ft | 440 kts | 341° |
| 2026-04-30 18:37 | 42.94973 | 23.45766 | 36284 ft | 439 kts | 342° |
| 2026-04-30 18:38 | 43.00949 | 23.44008 | 36290 ft | 439 kts | 342° |
| 2026-04-30 18:38 | 43.06913 | 23.42249 | 36304 ft | 438 kts | 342° |
| 2026-04-30 18:39 | 43.12872 | 23.40489 | 36304 ft | 437 kts | 342° |
| 2026-04-30 18:39 | 43.18776 | 23.38743 | 36311 ft | 437 kts | 342° |
| 2026-04-30 18:40 | 43.24705 | 23.36983 | 36306 ft | 436 kts | 342° |
| 2026-04-30 18:40 | 43.30636 | 23.35220 | 36320 ft | 436 kts | 342° |
| 2026-04-30 18:41 | 43.36551 | 23.33459 | 36329 ft | 435 kts | 342° |
| 2026-04-30 18:41 | 43.42438 | 23.31702 | 36324 ft | 436 kts | 342° |
| 2026-04-30 18:42 | 43.48363 | 23.29931 | 36328 ft | 436 kts | 342° |
| 2026-04-30 18:42 | 43.57204 | 23.27087 | 36331 ft | 434 kts | 340° |
| 2026-04-30 18:45 | 43.89331 | 23.15378 | 36335 ft | 436 kts | 341° |
| 2026-04-30 18:46 | 43.95197 | 23.13248 | 36343 ft | 436 kts | 341° |
| 2026-04-30 18:46 | 44.01059 | 23.11116 | 36343 ft | 436 kts | 341° |
| 2026-04-30 18:47 | 44.06924 | 23.08978 | 36344 ft | 435 kts | 341° |
| 2026-04-30 18:47 | 44.12776 | 23.06840 | 36343 ft | 435 kts | 341° |
| 2026-04-30 18:48 | 44.18594 | 23.04710 | 36347 ft | 435 kts | 341° |
| 2026-04-30 18:48 | 44.24438 | 23.02566 | 36347 ft | 434 kts | 341° |
| 2026-04-30 18:49 | 44.30277 | 23.00420 | 36350 ft | 434 kts | 341° |
| 2026-04-30 18:49 | 44.36112 | 22.98271 | 36347 ft | 434 kts | 341° |
| 2026-04-30 18:50 | 44.41911 | 22.96131 | 36343 ft | 434 kts | 341° |
| 2026-04-30 18:50 | 44.47742 | 22.93974 | 36362 ft | 434 kts | 341° |
| 2026-04-30 18:51 | 44.53580 | 22.91810 | 36348 ft | 434 kts | 342° |
| 2026-04-30 18:51 | 44.59415 | 22.89643 | 36355 ft | 434 kts | 342° |
| 2026-04-30 18:52 | 44.65255 | 22.87470 | 36358 ft | 434 kts | 342° |
| 2026-04-30 18:52 | 44.71062 | 22.85304 | 36357 ft | 435 kts | 342° |
| 2026-04-30 18:53 | 44.76913 | 22.83118 | 36363 ft | 435 kts | 342° |
| 2026-04-30 18:53 | 44.82762 | 22.80927 | 36365 ft | 435 kts | 342° |
| 2026-04-30 18:54 | 44.88621 | 22.78729 | 36359 ft | 436 kts | 342° |
| 2026-04-30 18:54 | 44.94440 | 22.76540 | 36358 ft | 435 kts | 342° |
| 2026-04-30 18:55 | 45.00289 | 22.74336 | 36357 ft | 435 kts | 342° |
| 2026-04-30 18:55 | 45.09063 | 22.71021 | 36355 ft | 435 kts | 342° |
| 2026-04-30 18:56 | 45.17793 | 22.67711 | 36342 ft | 435 kts | 343° |
| 2026-04-30 18:57 | 45.26541 | 22.64385 | 36346 ft | 434 kts | 343° |
| 2026-04-30 18:57 | 45.32382 | 22.62158 | 36334 ft | 434 kts | 343° |
| 2026-04-30 18:58 | 45.41136 | 22.58811 | 36333 ft | 434 kts | 343° |
| 2026-04-30 18:59 | 45.49850 | 22.55469 | 36322 ft | 434 kts | 343° |
| 2026-04-30 19:00 | 45.61495 | 22.50986 | 36320 ft | 433 kts | 343° |
| 2026-04-30 19:01 | 45.73082 | 22.46506 | 36313 ft | 432 kts | 343° |
| 2026-04-30 19:02 | 45.81781 | 22.43130 | 36314 ft | 432 kts | 343° |
| 2026-04-30 19:03 | 45.93378 | 22.38613 | 36314 ft | 431 kts | 343° |
| 2026-04-30 19:04 | 46.04909 | 22.34101 | 36311 ft | 431 kts | 343° |
| 2026-04-30 19:05 | 46.16461 | 22.29562 | 36304 ft | 430 kts | 344° |
| 2026-04-30 19:06 | 46.28011 | 22.25004 | 36312 ft | 430 kts | 344° |
| 2026-04-30 19:06 | 46.36629 | 22.21589 | 36313 ft | 430 kts | 344° |
| 2026-04-30 19:07 | 46.45282 | 22.18150 | 36306 ft | 430 kts | 344° |
| 2026-04-30 19:08 | 46.56813 | 22.13549 | 36310 ft | 430 kts | 344° |
| 2026-04-30 19:09 | 46.65422 | 22.10101 | 36310 ft | 430 kts | 344° |
| 2026-04-30 19:09 | 46.71198 | 22.07781 | 36310 ft | 431 kts | 344° |
| 2026-04-30 19:10 | 46.82746 | 22.03127 | 36314 ft | 431 kts | 345° |
| 2026-04-30 19:11 | 46.91382 | 21.99633 | 36320 ft | 431 kts | 345° |
| 2026-04-30 19:12 | 46.97173 | 21.97284 | 36320 ft | 431 kts | 345° |
| 2026-04-30 19:12 | 47.02956 | 21.94932 | 36318 ft | 432 kts | 345° |
| 2026-04-30 19:13 | 47.14489 | 21.90226 | 36322 ft | 431 kts | 345° |
| 2026-04-30 19:14 | 47.20265 | 21.87862 | 36322 ft | 431 kts | 345° |
| 2026-04-30 19:14 | 47.26038 | 21.85492 | 36319 ft | 431 kts | 345° |
| 2026-04-30 19:15 | 47.31800 | 21.83104 | 36322 ft | 430 kts | 345° |
| 2026-04-30 19:15 | 47.40395 | 21.79523 | 36320 ft | 429 kts | 345° |
| 2026-04-30 19:16 | 47.46143 | 21.77122 | 36322 ft | 429 kts | 345° |
| 2026-04-30 19:17 | 47.54749 | 21.73520 | 36319 ft | 428 kts | 345° |
| 2026-04-30 19:17 | 47.63304 | 21.69926 | 36322 ft | 428 kts | 345° |
| 2026-04-30 19:18 | 47.71893 | 21.66306 | 36327 ft | 427 kts | 345° |
| 2026-04-30 19:19 | 47.77608 | 21.63891 | 36339 ft | 427 kts | 345° |
| 2026-04-30 19:19 | 47.86171 | 21.60261 | 36344 ft | 427 kts | 346° |
| 2026-04-30 19:20 | 47.91841 | 21.57851 | 36347 ft | 426 kts | 346° |
| 2026-04-30 19:21 | 48.00391 | 21.54206 | 36347 ft | 426 kts | 346° |
| 2026-04-30 19:22 | 48.10822 | 21.49743 | 36343 ft | 426 kts | 346° |
| 2026-04-30 19:23 | 48.27850 | 21.42415 | 36336 ft | 425 kts | 346° |
| 2026-04-30 19:24 | 48.37297 | 21.38327 | 36343 ft | 425 kts | 346° |
| 2026-04-30 19:25 | 48.50578 | 21.32553 | 35167 ft | 422 kts | 347° |
| 2026-04-30 19:26 | 48.56168 | 21.30112 | 34302 ft | 415 kts | 347° |
| 2026-04-30 19:26 | 48.61662 | 21.27710 | 33332 ft | 406 kts | 347° |
| 2026-04-30 19:26 | 48.64357 | 21.26529 | 32918 ft | 401 kts | 347° |
| 2026-04-30 19:27 | 48.69662 | 21.24224 | 32078 ft | 392 kts | 348° |
| 2026-04-30 19:27 | 48.74916 | 21.22334 | 31246 ft | 384 kts | 351° |
| 2026-04-30 19:28 | 48.77477 | 21.21457 | 30843 ft | 381 kts | 351° |
| 2026-04-30 19:28 | 48.82596 | 21.19666 | 29987 ft | 375 kts | 350° |
| 2026-04-30 19:29 | 48.87748 | 21.17825 | 29153 ft | 388 kts | 350° |
| 2026-04-30 19:29 | 48.90388 | 21.16874 | 28721 ft | 390 kts | 350° |
| 2026-04-30 19:30 | 48.98226 | 21.14037 | 27444 ft | 386 kts | 350° |
| 2026-04-30 19:30 | 49.03440 | 21.12108 | 26591 ft | 386 kts | 349° |
| 2026-04-30 19:31 | 49.08671 | 21.10164 | 25744 ft | 388 kts | 349° |
| 2026-04-30 19:31 | 49.11302 | 21.09187 | 25310 ft | 389 kts | 349° |
| 2026-04-30 19:31 | 49.16584 | 21.07247 | 24469 ft | 392 kts | 349° |
| 2026-04-30 19:32 | 49.19201 | 21.06291 | 24051 ft | 393 kts | 349° |
| 2026-04-30 19:32 | 49.21835 | 21.05325 | 23258 ft | 386 kts | 350° |
| 2026-04-30 19:32 | 49.24441 | 21.04370 | 22328 ft | 383 kts | 350° |
| 2026-04-30 19:32 | 49.27018 | 21.03422 | 21543 ft | 377 kts | 350° |
| 2026-04-30 19:33 | 49.29543 | 21.02493 | 20818 ft | 370 kts | 350° |
| 2026-04-30 19:33 | 49.32020 | 21.01493 | 20052 ft | 368 kts | 346° |
| 2026-04-30 19:33 | 49.34370 | 20.99923 | 19249 ft | 370 kts | 336° |
| 2026-04-30 19:33 | 49.36534 | 20.97772 | 18469 ft | 371 kts | 328° |
| 2026-04-30 19:34 | 49.38562 | 20.95391 | 17828 ft | 363 kts | 327° |
| 2026-04-30 19:34 | 49.40549 | 20.93056 | 17406 ft | 354 kts | 328° |
| 2026-04-30 19:34 | 49.44530 | 20.88432 | 16603 ft | 364 kts | 328° |
| 2026-04-30 19:35 | 49.46525 | 20.86124 | 16187 ft | 362 kts | 328° |
| 2026-04-30 19:35 | 49.48521 | 20.83811 | 15792 ft | 358 kts | 328° |
| 2026-04-30 19:35 | 49.50503 | 20.81513 | 15394 ft | 355 kts | 328° |
| 2026-04-30 19:35 | 49.52469 | 20.79233 | 15002 ft | 353 kts | 328° |
| 2026-04-30 19:36 | 49.54422 | 20.76967 | 14620 ft | 351 kts | 328° |
| 2026-04-30 19:36 | 49.56366 | 20.74709 | 14226 ft | 348 kts | 328° |
| 2026-04-30 19:36 | 49.60169 | 20.70285 | 13406 ft | 336 kts | 327° |
| 2026-04-30 19:37 | 49.62017 | 20.68130 | 13034 ft | 330 kts | 327° |
| 2026-04-30 19:37 | 49.63835 | 20.66011 | 12659 ft | 324 kts | 327° |
| 2026-04-30 19:37 | 49.65601 | 20.63947 | 12314 ft | 312 kts | 327° |
| 2026-04-30 19:37 | 49.67302 | 20.61957 | 11947 ft | 302 kts | 327° |
| 2026-04-30 19:38 | 49.68950 | 20.60030 | 11626 ft | 292 kts | 327° |
| 2026-04-30 19:38 | 49.70520 | 20.58191 | 11300 ft | 283 kts | 327° |
| 2026-04-30 19:38 | 49.72085 | 20.56361 | 11004 ft | 281 kts | 327° |
| 2026-04-30 19:38 | 49.73638 | 20.54545 | 10704 ft | 279 kts | 327° |
| 2026-04-30 19:39 | 49.75159 | 20.52762 | 10601 ft | 271 kts | 327° |
| 2026-04-30 19:39 | 49.76654 | 20.51009 | 10475 ft | 269 kts | 327° |
| 2026-04-30 19:39 | 49.77319 | 20.50230 | 10415 ft | 269 kts | 327° |
| 2026-04-30 19:40 | 49.78793 | 20.48501 | 10397 ft | 272 kts | 327° |
| 2026-04-30 19:40 | 49.80307 | 20.46723 | 10308 ft | 272 kts | 327° |
| 2026-04-30 19:40 | 49.81804 | 20.44961 | 10022 ft | 269 kts | 327° |
| 2026-04-30 19:40 | 49.83293 | 20.43209 | 9514 ft | 269 kts | 326° |
| 2026-04-30 19:41 | 49.84779 | 20.41457 | 9005 ft | 269 kts | 326° |
| 2026-04-30 19:41 | 49.86262 | 20.39708 | 8567 ft | 266 kts | 326° |
| 2026-04-30 19:41 | 49.87732 | 20.37971 | 8126 ft | 265 kts | 325° |
| 2026-04-30 19:41 | 49.89187 | 20.36251 | 7977 ft | 258 kts | 325° |
| 2026-04-30 19:42 | 49.90594 | 20.34585 | 7813 ft | 252 kts | 325° |
| 2026-04-30 19:42 | 49.91987 | 20.32936 | 7511 ft | 252 kts | 325° |
| 2026-04-30 19:42 | 49.93359 | 20.31313 | 7227 ft | 251 kts | 325° |
| 2026-04-30 19:42 | 49.94741 | 20.29676 | 6959 ft | 249 kts | 325° |
| 2026-04-30 19:43 | 49.96120 | 20.28040 | 6677 ft | 249 kts | 324° |
| 2026-04-30 19:43 | 49.97489 | 20.26414 | 6386 ft | 248 kts | 324° |
| 2026-04-30 19:43 | 49.98855 | 20.24792 | 6098 ft | 247 kts | 324° |
| 2026-04-30 19:44 | 50.01570 | 20.21564 | 5545 ft | 244 kts | 324° |
| 2026-04-30 19:44 | 50.02887 | 20.19993 | 5432 ft | 231 kts | 324° |
| 2026-04-30 19:44 | 50.04117 | 20.18527 | 5219 ft | 222 kts | 324° |
| 2026-04-30 19:44 | 50.05332 | 20.17079 | 4871 ft | 218 kts | 324° |
| 2026-04-30 19:45 | 50.06538 | 20.15642 | 4399 ft | 219 kts | 324° |
| 2026-04-30 19:45 | 50.07742 | 20.14206 | 4051 ft | 215 kts | 324° |
| 2026-04-30 19:45 | 50.08879 | 20.12846 | 3999 ft | 198 kts | 324° |
| 2026-04-30 19:45 | 50.09940 | 20.11576 | 3999 ft | 190 kts | 324° |
| 2026-04-30 19:46 | 50.10991 | 20.10313 | 3993 ft | 191 kts | 323° |
| 2026-04-30 19:46 | 50.11762 | 20.08695 | 3984 ft | 186 kts | 291° |
| 2026-04-30 19:46 | 50.11741 | 20.06677 | 4011 ft | 191 kts | 260° |
| 2026-04-30 19:46 | 50.11388 | 20.04664 | 3969 ft | 193 kts | 259° |
| 2026-04-30 19:47 | 50.11116 | 20.02644 | 3776 ft | 195 kts | 263° |
| 2026-04-30 19:47 | 50.10945 | 20.01247 | 3604 ft | 194 kts | 262° |
| 2026-04-30 19:47 | 50.10583 | 19.98578 | 3252 ft | 186 kts | 261° |
| 2026-04-30 19:47 | 50.10316 | 19.96686 | 3023 ft | 171 kts | 261° |
| 2026-04-30 19:48 | 50.10071 | 19.94950 | 2779 ft | 158 kts | 261° |
| 2026-04-30 19:48 | 50.09839 | 19.93287 | 2570 ft | 157 kts | 261° |
| 2026-04-30 19:48 | 50.09607 | 19.91627 | 2364 ft | 157 kts | 261° |
| 2026-04-30 19:48 | 50.09375 | 19.89972 | 2145 ft | 156 kts | 261° |
| 2026-04-30 19:49 | 50.09147 | 19.88344 | 1913 ft | 155 kts | 260° |
| 2026-04-30 19:49 | 50.08695 | 19.85103 | 1469 ft | 152 kts | 259° |
| 2026-04-30 19:49 | 50.08472 | 19.83503 | 1275 ft | 151 kts | 259° |
| 2026-04-30 19:50 | 50.08253 | 19.81915 | 1105 ft | 150 kts | 259° |
| 2026-04-30 19:50 | 50.08031 | 19.80316 | 907 ft | 153 kts | 258° |
| 2026-04-30 19:50 | 50.07809 | 19.78734 | 801 ft | 133 kts | 258° |
| 2026-04-30 19:50 | 50.07658 | 19.77661 | 798 ft | 70 kts | 258° |
| 2026-04-30 19:51 | 50.07602 | 19.77257 | 800 ft | 20 kts | 255° |
| 2026-04-30 19:51 | 50.07573 | 19.77051 | 801 ft | 19 kts | 258° |
| 2026-04-30 19:51 | 50.07531 | 19.76865 | 801 ft | 19 kts | 219° |
| 2026-04-30 19:51 | 50.07418 | 19.76867 | 799 ft | 14 kts | 169° |
| 2026-04-30 19:52 | 50.07329 | 19.76898 | 799 ft | 13 kts | 166° |
| 2026-04-30 19:52 | 50.07316 | 19.77022 | 799 ft | 13 kts | 78° |
| 2026-04-30 19:52 | 50.07334 | 19.77156 | 799 ft | 13 kts | 78° |
| 2026-04-30 19:52 | 50.07352 | 19.77287 | 799 ft | 13 kts | 78° |
| 2026-04-30 19:53 | 50.07373 | 19.77443 | 799 ft | 16 kts | 77° |
| 2026-04-30 19:53 | 50.07399 | 19.77618 | 799 ft | 18 kts | 77° |
| 2026-04-30 19:53 | 50.07428 | 19.77821 | 799 ft | 21 kts | 78° |
| 2026-04-30 19:53 | 50.07460 | 19.78051 | 799 ft | 23 kts | 78° |
| 2026-04-30 19:54 | 50.07493 | 19.78295 | 799 ft | 23 kts | 78° |
| 2026-04-30 19:54 | 50.07526 | 19.78532 | 799 ft | 23 kts | 78° |
| 2026-04-30 19:54 | 50.07560 | 19.78779 | 799 ft | 23 kts | 78° |
| 2026-04-30 19:54 | 50.07594 | 19.79016 | 799 ft | 22 kts | 78° |
| 2026-04-30 19:55 | 50.07626 | 19.79249 | 799 ft | 22 kts | 77° |
| 2026-04-30 19:55 | 50.07658 | 19.79475 | 799 ft | 21 kts | 77° |
| 2026-04-30 19:55 | 50.07688 | 19.79693 | 799 ft | 20 kts | 77° |
| 2026-04-30 19:55 | 50.07688 | 19.79870 | 799 ft | 14 kts | 142° |
| 2026-04-30 19:56 | 50.07595 | 19.79904 | 799 ft | 13 kts | 168° |
| 2026-04-30 19:56 | 50.07513 | 19.79951 | 799 ft | 12 kts | 121° |
| 2026-04-30 19:56 | 50.07523 | 19.80069 | 799 ft | 11 kts | 78° |
| 2026-04-30 19:56 | 50.07508 | 19.80132 | 799 ft | 5 kts | 169° |
| 2026-04-30 19:57 | 50.07484 | 19.80140 | 799 ft | 1 kts | 168° |
| 2026-04-30 19:57 | 50.07480 | 19.80141 | 799 ft | 0 kts | 168° |